sensor_id;sensor_type;location;lat;lon;timestamp;P1;durP1;ratioP1;P2;durP2;ratioP2
4214;SDS011;2121;48.062;7.850;2023-03-12T00:00:34;10.07;;;6.27;;
4214;SDS011;2121;48.062;7.850;2023-03-12T00:03:00;10.20;;;6.87;;
4214;SDS011;2121;48.062;7.850;2023-03-12T00:05:26;16.50;;;7.23;;
4214;SDS011;2121;48.062;7.850;2023-03-12T00:07:52;13.80;;;7.57;;
4214;SDS011;2121;48.062;7.850;2023-03-12T00:10:18;18.30;;;6.73;;
4214;SDS011;2121;48.062;7.850;2023-03-12T00:12:45;12.30;;;6.80;;
4214;SDS011;2121;48.062;7.850;2023-03-12T00:15:11;11.57;;;7.53;;
4214;SDS011;2121;48.062;7.850;2023-03-12T00:17:37;10.37;;;6.73;;
4214;SDS011;2121;48.062;7.850;2023-03-12T00:20:03;11.97;;;7.30;;
4214;SDS011;2121;48.062;7.850;2023-03-12T00:22:31;9.33;;;6.30;;
4214;SDS011;2121;48.062;7.850;2023-03-12T00:24:57;9.07;;;6.33;;
4214;SDS011;2121;48.062;7.850;2023-03-12T00:27:23;12.03;;;5.40;;
4214;SDS011;2121;48.062;7.850;2023-03-12T00:29:50;7.33;;;5.20;;
4214;SDS011;2121;48.062;7.850;2023-03-12T00:32:16;10.87;;;6.40;;
4214;SDS011;2121;48.062;7.850;2023-03-12T00:34:42;8.03;;;5.73;;
4214;SDS011;2121;48.062;7.850;2023-03-12T00:37:08;9.00;;;5.10;;
4214;SDS011;2121;48.062;7.850;2023-03-12T00:39:34;5.90;;;4.20;;
4214;SDS011;2121;48.062;7.850;2023-03-12T00:42:00;4.37;;;3.77;;
4214;SDS011;2121;48.062;7.850;2023-03-12T00:44:26;6.90;;;3.50;;
4214;SDS011;2121;48.062;7.850;2023-03-12T00:46:52;6.37;;;3.27;;
4214;SDS011;2121;48.062;7.850;2023-03-12T00:49:17;4.20;;;3.00;;
4214;SDS011;2121;48.062;7.850;2023-03-12T00:51:43;2.73;;;2.53;;
4214;SDS011;2121;48.062;7.850;2023-03-12T00:54:09;3.03;;;2.80;;
4214;SDS011;2121;48.062;7.850;2023-03-12T00:56:35;2.80;;;2.60;;
4214;SDS011;2121;48.062;7.850;2023-03-12T00:59:01;6.47;;;3.20;;
4214;SDS011;2121;48.062;7.850;2023-03-12T01:01:26;6.40;;;3.23;;
4214;SDS011;2121;48.062;7.850;2023-03-12T01:03:52;3.27;;;2.97;;
4214;SDS011;2121;48.062;7.850;2023-03-12T01:06:19;4.70;;;3.00;;
4214;SDS011;2121;48.062;7.850;2023-03-12T01:08:45;4.13;;;2.70;;
4214;SDS011;2121;48.062;7.850;2023-03-12T01:11:12;2.93;;;2.73;;
4214;SDS011;2121;48.062;7.850;2023-03-12T01:13:40;3.10;;;2.77;;
4214;SDS011;2121;48.062;7.850;2023-03-12T01:16:05;3.33;;;2.90;;
4214;SDS011;2121;48.062;7.850;2023-03-12T01:18:32;3.53;;;2.57;;
4214;SDS011;2121;48.062;7.850;2023-03-12T01:20:57;3.00;;;2.70;;
4214;SDS011;2121;48.062;7.850;2023-03-12T01:23:23;2.87;;;2.60;;
4214;SDS011;2121;48.062;7.850;2023-03-12T01:25:50;5.30;;;3.10;;
4214;SDS011;2121;48.062;7.850;2023-03-12T01:28:19;10.20;;;3.73;;
4214;SDS011;2121;48.062;7.850;2023-03-12T01:30:46;5.00;;;2.70;;
4214;SDS011;2121;48.062;7.850;2023-03-12T01:33:12;3.07;;;2.77;;
4214;SDS011;2121;48.062;7.850;2023-03-12T01:35:38;4.93;;;2.67;;
4214;SDS011;2121;48.062;7.850;2023-03-12T01:38:06;3.60;;;3.20;;
4214;SDS011;2121;48.062;7.850;2023-03-12T01:40:34;5.07;;;3.90;;
4214;SDS011;2121;48.062;7.850;2023-03-12T01:43:14;8.43;;;4.57;;
4214;SDS011;2121;48.062;7.850;2023-03-12T01:48:46;6.27;;;4.17;;
4214;SDS011;2121;48.062;7.850;2023-03-12T01:51:18;5.40;;;3.73;;
4214;SDS011;2121;48.062;7.850;2023-03-12T01:53:46;3.20;;;2.53;;
4214;SDS011;2121;48.062;7.850;2023-03-12T01:56:16;5.90;;;3.70;;
4214;SDS011;2121;48.062;7.850;2023-03-12T01:58:44;6.73;;;3.63;;
4214;SDS011;2121;48.062;7.850;2023-03-12T02:01:18;4.27;;;3.00;;
4214;SDS011;2121;48.062;7.850;2023-03-12T02:03:46;4.10;;;2.63;;
4214;SDS011;2121;48.062;7.850;2023-03-12T02:06:16;2.97;;;2.13;;
4214;SDS011;2121;48.062;7.850;2023-03-12T02:08:53;4.70;;;2.60;;
4214;SDS011;2121;48.062;7.850;2023-03-12T02:11:21;13.27;;;3.10;;
4214;SDS011;2121;48.062;7.850;2023-03-12T02:13:46;2.80;;;2.57;;
4214;SDS011;2121;48.062;7.850;2023-03-12T02:16:12;3.37;;;2.97;;
4214;SDS011;2121;48.062;7.850;2023-03-12T02:18:38;9.27;;;3.10;;
4214;SDS011;2121;48.062;7.850;2023-03-12T02:21:07;3.10;;;2.40;;
4214;SDS011;2121;48.062;7.850;2023-03-12T02:26:52;4.00;;;3.60;;
4214;SDS011;2121;48.062;7.850;2023-03-12T02:29:18;3.40;;;2.80;;
4214;SDS011;2121;48.062;7.850;2023-03-12T02:31:49;6.57;;;2.97;;
4214;SDS011;2121;48.062;7.850;2023-03-12T02:34:18;4.00;;;2.70;;
4214;SDS011;2121;48.062;7.850;2023-03-12T02:36:44;3.03;;;2.73;;
4214;SDS011;2121;48.062;7.850;2023-03-12T02:39:10;5.13;;;3.03;;
4214;SDS011;2121;48.062;7.850;2023-03-12T02:41:40;3.67;;;3.03;;
4214;SDS011;2121;48.062;7.850;2023-03-12T02:44:11;2.73;;;2.53;;
4214;SDS011;2121;48.062;7.850;2023-03-12T02:46:44;6.30;;;3.40;;
4214;SDS011;2121;48.062;7.850;2023-03-12T02:49:13;4.13;;;2.50;;
4214;SDS011;2121;48.062;7.850;2023-03-12T02:51:40;3.20;;;2.80;;
4214;SDS011;2121;48.062;7.850;2023-03-12T02:54:09;4.87;;;2.77;;
4214;SDS011;2121;48.062;7.850;2023-03-12T02:56:36;5.13;;;3.17;;
4214;SDS011;2121;48.062;7.850;2023-03-12T02:59:02;6.13;;;2.97;;
4214;SDS011;2121;48.062;7.850;2023-03-12T03:01:29;4.23;;;3.30;;
4214;SDS011;2121;48.062;7.850;2023-03-12T03:03:58;7.50;;;3.50;;
4214;SDS011;2121;48.062;7.850;2023-03-12T03:06:25;5.27;;;3.77;;
4214;SDS011;2121;48.062;7.850;2023-03-12T03:08:51;4.20;;;3.13;;
4214;SDS011;2121;48.062;7.850;2023-03-12T03:11:17;5.10;;;3.63;;
4214;SDS011;2121;48.062;7.850;2023-03-12T03:13:43;4.40;;;3.67;;
4214;SDS011;2121;48.062;7.850;2023-03-12T03:16:09;3.40;;;3.10;;
4214;SDS011;2121;48.062;7.850;2023-03-12T03:18:36;3.57;;;3.27;;
4214;SDS011;2121;48.062;7.850;2023-03-12T03:21:05;5.07;;;3.90;;
4214;SDS011;2121;48.062;7.850;2023-03-12T03:23:34;3.77;;;3.47;;
4214;SDS011;2121;48.062;7.850;2023-03-12T03:26:00;3.93;;;3.07;;
4214;SDS011;2121;48.062;7.850;2023-03-12T03:28:27;8.63;;;3.20;;
4214;SDS011;2121;48.062;7.850;2023-03-12T03:30:54;3.40;;;2.77;;
4214;SDS011;2121;48.062;7.850;2023-03-12T03:33:28;5.57;;;3.77;;
4214;SDS011;2121;48.062;7.850;2023-03-12T03:35:56;2.70;;;2.50;;
4214;SDS011;2121;48.062;7.850;2023-03-12T03:38:24;2.60;;;2.40;;
4214;SDS011;2121;48.062;7.850;2023-03-12T03:40:52;7.67;;;3.53;;
4214;SDS011;2121;48.062;7.850;2023-03-12T03:43:18;5.87;;;2.87;;
4214;SDS011;2121;48.062;7.850;2023-03-12T03:45:44;4.37;;;3.10;;
4214;SDS011;2121;48.062;7.850;2023-03-12T03:48:10;2.70;;;2.50;;
4214;SDS011;2121;48.062;7.850;2023-03-12T03:50:37;2.27;;;2.13;;
4214;SDS011;2121;48.062;7.850;2023-03-12T03:53:04;2.63;;;2.53;;
4214;SDS011;2121;48.062;7.850;2023-03-12T03:55:34;3.00;;;2.70;;
4214;SDS011;2121;48.062;7.850;2023-03-12T03:58:01;3.50;;;3.20;;
4214;SDS011;2121;48.062;7.850;2023-03-12T04:00:27;4.03;;;2.97;;
4214;SDS011;2121;48.062;7.850;2023-03-12T04:02:53;3.47;;;3.00;;
4214;SDS011;2121;48.062;7.850;2023-03-12T04:05:19;3.53;;;3.23;;
4214;SDS011;2121;48.062;7.850;2023-03-12T04:07:45;5.50;;;3.97;;
4214;SDS011;2121;48.062;7.850;2023-03-12T04:10:11;4.80;;;3.70;;
4214;SDS011;2121;48.062;7.850;2023-03-12T04:12:37;4.50;;;4.00;;
4214;SDS011;2121;48.062;7.850;2023-03-12T04:15:03;4.67;;;4.27;;
4214;SDS011;2121;48.062;7.850;2023-03-12T04:17:30;6.87;;;4.07;;
4214;SDS011;2121;48.062;7.850;2023-03-12T04:19:56;5.07;;;4.60;;
4214;SDS011;2121;48.062;7.850;2023-03-12T04:22:21;4.40;;;4.03;;
4214;SDS011;2121;48.062;7.850;2023-03-12T04:24:47;4.47;;;4.07;;
4214;SDS011;2121;48.062;7.850;2023-03-12T04:27:13;3.87;;;3.53;;
4214;SDS011;2121;48.062;7.850;2023-03-12T04:29:39;4.37;;;3.97;;
4214;SDS011;2121;48.062;7.850;2023-03-12T04:32:06;4.10;;;3.70;;
4214;SDS011;2121;48.062;7.850;2023-03-12T04:34:32;5.17;;;3.60;;
4214;SDS011;2121;48.062;7.850;2023-03-12T04:36:59;4.90;;;4.30;;
4214;SDS011;2121;48.062;7.850;2023-03-12T04:39:26;4.47;;;3.57;;
4214;SDS011;2121;48.062;7.850;2023-03-12T04:41:52;3.80;;;3.50;;
4214;SDS011;2121;48.062;7.850;2023-03-12T04:44:18;4.00;;;3.63;;
4214;SDS011;2121;48.062;7.850;2023-03-12T04:46:44;4.37;;;3.80;;
4214;SDS011;2121;48.062;7.850;2023-03-12T04:49:09;3.73;;;3.40;;
4214;SDS011;2121;48.062;7.850;2023-03-12T04:51:35;3.30;;;3.10;;
4214;SDS011;2121;48.062;7.850;2023-03-12T04:54:01;4.17;;;3.77;;
4214;SDS011;2121;48.062;7.850;2023-03-12T04:56:27;5.10;;;3.80;;
4214;SDS011;2121;48.062;7.850;2023-03-12T04:58:53;3.90;;;3.60;;
4214;SDS011;2121;48.062;7.850;2023-03-12T05:01:29;3.90;;;3.53;;
4214;SDS011;2121;48.062;7.850;2023-03-12T05:03:56;8.20;;;3.50;;
4214;SDS011;2121;48.062;7.850;2023-03-12T05:06:23;3.10;;;2.90;;
4214;SDS011;2121;48.062;7.850;2023-03-12T05:08:49;3.10;;;2.90;;
4214;SDS011;2121;48.062;7.850;2023-03-12T05:11:16;3.70;;;3.40;;
4214;SDS011;2121;48.062;7.850;2023-03-12T05:13:43;3.70;;;3.20;;
4214;SDS011;2121;48.062;7.850;2023-03-12T05:16:09;3.73;;;3.07;;
4214;SDS011;2121;48.062;7.850;2023-03-12T05:18:35;3.40;;;3.10;;
4214;SDS011;2121;48.062;7.850;2023-03-12T05:21:06;4.77;;;3.70;;
4214;SDS011;2121;48.062;7.850;2023-03-12T05:23:36;4.13;;;3.30;;
4214;SDS011;2121;48.062;7.850;2023-03-12T05:26:03;4.50;;;3.20;;
4214;SDS011;2121;48.062;7.850;2023-03-12T05:28:30;4.00;;;3.17;;
4214;SDS011;2121;48.062;7.850;2023-03-12T05:30:57;4.10;;;3.00;;
4214;SDS011;2121;48.062;7.850;2023-03-12T05:33:25;3.13;;;2.93;;
4214;SDS011;2121;48.062;7.850;2023-03-12T05:35:52;4.10;;;3.50;;
4214;SDS011;2121;48.062;7.850;2023-03-12T05:38:18;3.97;;;3.30;;
4214;SDS011;2121;48.062;7.850;2023-03-12T05:40:54;3.20;;;3.00;;
4214;SDS011;2121;48.062;7.850;2023-03-12T05:43:23;4.10;;;3.27;;
4214;SDS011;2121;48.062;7.850;2023-03-12T05:45:50;3.13;;;2.83;;
4214;SDS011;2121;48.062;7.850;2023-03-12T05:48:16;2.87;;;2.53;;
4214;SDS011;2121;48.062;7.850;2023-03-12T05:50:42;2.70;;;2.40;;
4214;SDS011;2121;48.062;7.850;2023-03-12T05:53:08;4.40;;;3.60;;
4214;SDS011;2121;48.062;7.850;2023-03-12T05:55:37;2.90;;;2.70;;
4214;SDS011;2121;48.062;7.850;2023-03-12T05:58:04;3.60;;;2.47;;
4214;SDS011;2121;48.062;7.850;2023-03-12T06:00:32;3.03;;;2.83;;
4214;SDS011;2121;48.062;7.850;2023-03-12T06:03:01;3.90;;;3.03;;
4214;SDS011;2121;48.062;7.850;2023-03-12T06:05:29;2.60;;;2.40;;
4214;SDS011;2121;48.062;7.850;2023-03-12T06:07:56;2.93;;;2.77;;
4214;SDS011;2121;48.062;7.850;2023-03-12T06:10:22;2.30;;;2.20;;
4214;SDS011;2121;48.062;7.850;2023-03-12T06:12:48;2.60;;;2.40;;
4214;SDS011;2121;48.062;7.850;2023-03-12T06:15:13;2.97;;;2.77;;
4214;SDS011;2121;48.062;7.850;2023-03-12T06:17:39;2.53;;;2.37;;
4214;SDS011;2121;48.062;7.850;2023-03-12T06:20:06;2.60;;;2.40;;
4214;SDS011;2121;48.062;7.850;2023-03-12T06:22:32;4.43;;;2.20;;
4214;SDS011;2121;48.062;7.850;2023-03-12T06:24:58;2.03;;;1.93;;
4214;SDS011;2121;48.062;7.850;2023-03-12T06:27:24;2.40;;;2.20;;
4214;SDS011;2121;48.062;7.850;2023-03-12T06:29:50;2.13;;;1.93;;
4214;SDS011;2121;48.062;7.850;2023-03-12T06:32:15;2.03;;;1.93;;
4214;SDS011;2121;48.062;7.850;2023-03-12T06:34:42;2.20;;;2.10;;
4214;SDS011;2121;48.062;7.850;2023-03-12T06:37:08;2.13;;;2.03;;
4214;SDS011;2121;48.062;7.850;2023-03-12T06:39:35;2.87;;;2.70;;
4214;SDS011;2121;48.062;7.850;2023-03-12T06:42:02;2.33;;;2.23;;
4214;SDS011;2121;48.062;7.850;2023-03-12T06:44:28;2.23;;;2.13;;
4214;SDS011;2121;48.062;7.850;2023-03-12T06:46:54;2.40;;;2.20;;
4214;SDS011;2121;48.062;7.850;2023-03-12T06:49:20;4.10;;;2.30;;
4214;SDS011;2121;48.062;7.850;2023-03-12T06:51:46;3.73;;;2.73;;
4214;SDS011;2121;48.062;7.850;2023-03-12T06:54:12;2.63;;;2.43;;
4214;SDS011;2121;48.062;7.850;2023-03-12T06:56:38;3.20;;;2.50;;
4214;SDS011;2121;48.062;7.850;2023-03-12T06:59:04;2.17;;;2.07;;
4214;SDS011;2121;48.062;7.850;2023-03-12T07:01:29;2.40;;;2.20;;
4214;SDS011;2121;48.062;7.850;2023-03-12T07:03:55;2.23;;;2.13;;
4214;SDS011;2121;48.062;7.850;2023-03-12T07:06:21;2.30;;;2.20;;
4214;SDS011;2121;48.062;7.850;2023-03-12T07:08:48;2.17;;;2.00;;
4214;SDS011;2121;48.062;7.850;2023-03-12T07:11:14;2.27;;;2.07;;
4214;SDS011;2121;48.062;7.850;2023-03-12T07:13:41;2.33;;;2.10;;
4214;SDS011;2121;48.062;7.850;2023-03-12T07:16:08;1.63;;;1.53;;
4214;SDS011;2121;48.062;7.850;2023-03-12T07:18:34;2.30;;;2.20;;
4214;SDS011;2121;48.062;7.850;2023-03-12T07:21:01;2.67;;;2.47;;
4214;SDS011;2121;48.062;7.850;2023-03-12T07:23:26;2.63;;;2.30;;
4214;SDS011;2121;48.062;7.850;2023-03-12T07:25:52;2.20;;;2.10;;
4214;SDS011;2121;48.062;7.850;2023-03-12T07:28:19;2.20;;;2.10;;
4214;SDS011;2121;48.062;7.850;2023-03-12T07:30:45;2.30;;;2.00;;
4214;SDS011;2121;48.062;7.850;2023-03-12T07:33:14;3.90;;;2.70;;
4214;SDS011;2121;48.062;7.850;2023-03-12T07:35:44;3.10;;;2.87;;
4214;SDS011;2121;48.062;7.850;2023-03-12T07:38:11;2.70;;;2.47;;
4214;SDS011;2121;48.062;7.850;2023-03-12T07:40:37;3.60;;;3.00;;
4214;SDS011;2121;48.062;7.850;2023-03-12T07:43:03;2.63;;;2.43;;
4214;SDS011;2121;48.062;7.850;2023-03-12T07:45:35;2.10;;;1.90;;
4214;SDS011;2121;48.062;7.850;2023-03-12T07:48:04;5.17;;;2.50;;
4214;SDS011;2121;48.062;7.850;2023-03-12T07:50:31;3.00;;;2.80;;
4214;SDS011;2121;48.062;7.850;2023-03-12T07:52:57;2.50;;;2.30;;
4214;SDS011;2121;48.062;7.850;2023-03-12T07:55:23;6.70;;;2.50;;
4214;SDS011;2121;48.062;7.850;2023-03-12T07:57:48;2.40;;;2.30;;
4214;SDS011;2121;48.062;7.850;2023-03-12T08:00:14;2.40;;;2.20;;
4214;SDS011;2121;48.062;7.850;2023-03-12T08:02:41;5.13;;;2.70;;
4214;SDS011;2121;48.062;7.850;2023-03-12T08:05:07;2.50;;;2.27;;
4214;SDS011;2121;48.062;7.850;2023-03-12T08:07:33;2.80;;;2.03;;
4214;SDS011;2121;48.062;7.850;2023-03-12T08:10:00;6.07;;;2.67;;
4214;SDS011;2121;48.062;7.850;2023-03-12T08:12:28;2.17;;;2.03;;
4214;SDS011;2121;48.062;7.850;2023-03-12T08:14:53;2.87;;;2.27;;
4214;SDS011;2121;48.062;7.850;2023-03-12T08:17:19;2.70;;;2.50;;
4214;SDS011;2121;48.062;7.850;2023-03-12T08:19:45;2.40;;;2.20;;
4214;SDS011;2121;48.062;7.850;2023-03-12T08:22:11;2.63;;;2.43;;
4214;SDS011;2121;48.062;7.850;2023-03-12T08:24:37;2.23;;;2.03;;
4214;SDS011;2121;48.062;7.850;2023-03-12T08:27:02;3.57;;;2.60;;
4214;SDS011;2121;48.062;7.850;2023-03-12T08:29:28;2.73;;;2.53;;
4214;SDS011;2121;48.062;7.850;2023-03-12T08:31:54;1.67;;;1.57;;
4214;SDS011;2121;48.062;7.850;2023-03-12T08:34:20;4.30;;;2.23;;
4214;SDS011;2121;48.062;7.850;2023-03-12T08:36:45;2.03;;;1.93;;
4214;SDS011;2121;48.062;7.850;2023-03-12T08:39:11;4.40;;;2.40;;
4214;SDS011;2121;48.062;7.850;2023-03-12T08:41:37;3.43;;;1.70;;
4214;SDS011;2121;48.062;7.850;2023-03-12T08:44:03;2.30;;;1.60;;
4214;SDS011;2121;48.062;7.850;2023-03-12T08:46:28;2.00;;;1.90;;
4214;SDS011;2121;48.062;7.850;2023-03-12T08:48:54;2.00;;;1.90;;
4214;SDS011;2121;48.062;7.850;2023-03-12T08:51:20;1.70;;;1.60;;
4214;SDS011;2121;48.062;7.850;2023-03-12T08:53:45;1.90;;;1.80;;
4214;SDS011;2121;48.062;7.850;2023-03-12T08:56:11;1.47;;;1.40;;
4214;SDS011;2121;48.062;7.850;2023-03-12T08:58:37;4.57;;;2.10;;
4214;SDS011;2121;48.062;7.850;2023-03-12T09:01:06;1.63;;;1.53;;
4214;SDS011;2121;48.062;7.850;2023-03-12T09:03:36;1.50;;;1.40;;
4214;SDS011;2121;48.062;7.850;2023-03-12T09:06:09;1.63;;;1.53;;
4214;SDS011;2121;48.062;7.850;2023-03-12T09:08:37;1.70;;;1.60;;
4214;SDS011;2121;48.062;7.850;2023-03-12T09:11:05;1.43;;;1.33;;
4214;SDS011;2121;48.062;7.850;2023-03-12T09:13:32;1.40;;;1.30;;
4214;SDS011;2121;48.062;7.850;2023-03-12T09:15:59;7.50;;;2.27;;
4214;SDS011;2121;48.062;7.850;2023-03-12T09:18:27;1.53;;;1.43;;
4214;SDS011;2121;48.062;7.850;2023-03-12T09:20:54;2.47;;;2.17;;
4214;SDS011;2121;48.062;7.850;2023-03-12T09:23:20;1.67;;;1.60;;
4214;SDS011;2121;48.062;7.850;2023-03-12T09:25:46;1.83;;;1.70;;
4214;SDS011;2121;48.062;7.850;2023-03-12T09:28:12;2.03;;;1.83;;
4214;SDS011;2121;48.062;7.850;2023-03-12T09:30:39;3.30;;;1.97;;
4214;SDS011;2121;48.062;7.850;2023-03-12T09:33:05;1.97;;;1.87;;
4214;SDS011;2121;48.062;7.850;2023-03-12T09:35:31;1.60;;;1.50;;
4214;SDS011;2121;48.062;7.850;2023-03-12T09:37:57;2.10;;;1.90;;
4214;SDS011;2121;48.062;7.850;2023-03-12T09:40:24;1.70;;;1.60;;
4214;SDS011;2121;48.062;7.850;2023-03-12T09:42:56;2.33;;;1.60;;
4214;SDS011;2121;48.062;7.850;2023-03-12T09:45:54;1.70;;;1.60;;
4214;SDS011;2121;48.062;7.850;2023-03-12T09:48:25;1.60;;;1.50;;
4214;SDS011;2121;48.062;7.850;2023-03-12T09:51:05;1.60;;;1.50;;
4214;SDS011;2121;48.062;7.850;2023-03-12T09:53:43;1.53;;;1.43;;
4214;SDS011;2121;48.062;7.850;2023-03-12T09:56:14;1.97;;;1.87;;
4214;SDS011;2121;48.062;7.850;2023-03-12T09:58:43;1.43;;;1.33;;
4214;SDS011;2121;48.062;7.850;2023-03-12T10:01:22;1.80;;;1.70;;
4214;SDS011;2121;48.062;7.850;2023-03-12T10:04:18;5.73;;;2.07;;
4214;SDS011;2121;48.062;7.850;2023-03-12T10:15:16;1.70;;;1.60;;
4214;SDS011;2121;48.062;7.850;2023-03-12T10:18:27;1.70;;;1.60;;
4214;SDS011;2121;48.062;7.850;2023-03-12T10:21:57;1.70;;;1.60;;
4214;SDS011;2121;48.062;7.850;2023-03-12T10:26:53;1.93;;;1.83;;
4214;SDS011;2121;48.062;7.850;2023-03-12T10:29:23;2.87;;;2.13;;
4214;SDS011;2121;48.062;7.850;2023-03-12T10:34:46;1.73;;;1.63;;
4214;SDS011;2121;48.062;7.850;2023-03-12T10:40:03;2.03;;;1.73;;
4214;SDS011;2121;48.062;7.850;2023-03-12T10:42:30;1.67;;;1.57;;
4214;SDS011;2121;48.062;7.850;2023-03-12T10:47:41;2.37;;;2.13;;
4214;SDS011;2121;48.062;7.850;2023-03-12T10:52:51;1.90;;;1.80;;
4214;SDS011;2121;48.062;7.850;2023-03-12T10:55:37;1.90;;;1.70;;
4214;SDS011;2121;48.062;7.850;2023-03-12T10:58:03;3.53;;;2.10;;
4214;SDS011;2121;48.062;7.850;2023-03-12T11:00:29;1.97;;;1.73;;
4214;SDS011;2121;48.062;7.850;2023-03-12T11:03:04;2.60;;;2.17;;
4214;SDS011;2121;48.062;7.850;2023-03-12T11:05:46;2.20;;;1.70;;
4214;SDS011;2121;48.062;7.850;2023-03-12T11:08:28;2.03;;;1.80;;
4214;SDS011;2121;48.062;7.850;2023-03-12T11:10:57;2.20;;;2.00;;
4214;SDS011;2121;48.062;7.850;2023-03-12T11:18:40;1.93;;;1.73;;
4214;SDS011;2121;48.062;7.850;2023-03-12T11:21:18;4.90;;;1.90;;
4214;SDS011;2121;48.062;7.850;2023-03-12T11:23:45;2.00;;;1.77;;
4214;SDS011;2121;48.062;7.850;2023-03-12T11:26:24;1.50;;;1.40;;
4214;SDS011;2121;48.062;7.850;2023-03-12T11:31:28;2.10;;;2.00;;
4214;SDS011;2121;48.062;7.850;2023-03-12T11:34:07;1.87;;;1.60;;
4214;SDS011;2121;48.062;7.850;2023-03-12T11:37:00;1.50;;;1.40;;
4214;SDS011;2121;48.062;7.850;2023-03-12T11:39:49;3.63;;;2.37;;
4214;SDS011;2121;48.062;7.850;2023-03-12T11:54:20;1.87;;;1.77;;
4214;SDS011;2121;48.062;7.850;2023-03-12T12:00:30;2.07;;;1.93;;
4214;SDS011;2121;48.062;7.850;2023-03-12T12:03:22;5.90;;;1.80;;
4214;SDS011;2121;48.062;7.850;2023-03-12T12:20:24;3.07;;;1.97;;
4214;SDS011;2121;48.062;7.850;2023-03-12T12:23:17;4.10;;;2.23;;
4214;SDS011;2121;48.062;7.850;2023-03-12T12:26:12;4.30;;;2.30;;
4214;SDS011;2121;48.062;7.850;2023-03-12T12:29:08;3.87;;;1.80;;
4214;SDS011;2121;48.062;7.850;2023-03-12T12:32:00;6.00;;;1.50;;
4214;SDS011;2121;48.062;7.850;2023-03-12T12:45:52;2.80;;;1.60;;
4214;SDS011;2121;48.062;7.850;2023-03-12T12:48:25;2.10;;;1.50;;
4214;SDS011;2121;48.062;7.850;2023-03-12T12:51:33;3.13;;;2.10;;
4214;SDS011;2121;48.062;7.850;2023-03-12T12:57:01;3.47;;;2.40;;
4214;SDS011;2121;48.062;7.850;2023-03-12T13:02:44;5.07;;;1.97;;
4214;SDS011;2121;48.062;7.850;2023-03-12T13:05:19;3.63;;;1.43;;
4214;SDS011;2121;48.062;7.850;2023-03-12T13:07:51;2.40;;;1.67;;
4214;SDS011;2121;48.062;7.850;2023-03-12T13:10:38;2.90;;;2.10;;
4214;SDS011;2121;48.062;7.850;2023-03-12T13:13:09;3.90;;;2.20;;
4214;SDS011;2121;48.062;7.850;2023-03-12T13:15:44;6.47;;;1.90;;
4214;SDS011;2121;48.062;7.850;2023-03-12T13:18:21;2.50;;;1.40;;
4214;SDS011;2121;48.062;7.850;2023-03-12T13:26:06;1.93;;;1.83;;
4214;SDS011;2121;48.062;7.850;2023-03-12T13:28:37;13.90;;;2.20;;
4214;SDS011;2121;48.062;7.850;2023-03-12T13:31:37;5.03;;;2.77;;
4214;SDS011;2121;48.062;7.850;2023-03-12T13:36:43;5.63;;;1.63;;
4214;SDS011;2121;48.062;7.850;2023-03-12T13:39:31;6.97;;;2.33;;
4214;SDS011;2121;48.062;7.850;2023-03-12T13:42:00;3.63;;;1.67;;
4214;SDS011;2121;48.062;7.850;2023-03-12T13:45:19;2.33;;;2.13;;
4214;SDS011;2121;48.062;7.850;2023-03-12T13:47:51;3.20;;;1.90;;
4214;SDS011;2121;48.062;7.850;2023-03-12T13:50:23;1.93;;;1.60;;
4214;SDS011;2121;48.062;7.850;2023-03-12T13:52:56;4.73;;;1.70;;
4214;SDS011;2121;48.062;7.850;2023-03-12T13:55:31;5.00;;;2.27;;
4214;SDS011;2121;48.062;7.850;2023-03-12T14:00:36;3.03;;;1.60;;
4214;SDS011;2121;48.062;7.850;2023-03-12T14:06:33;6.13;;;2.27;;
4214;SDS011;2121;48.062;7.850;2023-03-12T14:17:33;3.17;;;2.30;;
4214;SDS011;2121;48.062;7.850;2023-03-12T14:22:56;6.10;;;2.13;;
4214;SDS011;2121;48.062;7.850;2023-03-12T14:25:36;7.70;;;2.30;;
4214;SDS011;2121;48.062;7.850;2023-03-12T14:28:12;8.60;;;1.80;;
4214;SDS011;2121;48.062;7.850;2023-03-12T14:30:47;7.10;;;2.83;;
4214;SDS011;2121;48.062;7.850;2023-03-12T14:33:26;5.70;;;2.07;;
4214;SDS011;2121;48.062;7.850;2023-03-12T14:36:10;4.90;;;2.33;;
4214;SDS011;2121;48.062;7.850;2023-03-12T14:38:45;7.27;;;2.20;;
4214;SDS011;2121;48.062;7.850;2023-03-12T14:41:20;5.63;;;1.70;;
4214;SDS011;2121;48.062;7.850;2023-03-12T14:43:53;2.73;;;2.07;;
4214;SDS011;2121;48.062;7.850;2023-03-12T14:46:28;3.77;;;1.77;;
4214;SDS011;2121;48.062;7.850;2023-03-12T14:48:54;3.87;;;1.90;;
4214;SDS011;2121;48.062;7.850;2023-03-12T14:51:21;5.63;;;2.70;;
4214;SDS011;2121;48.062;7.850;2023-03-12T14:53:52;2.17;;;1.97;;
4214;SDS011;2121;48.062;7.850;2023-03-12T14:56:26;6.33;;;2.30;;
4214;SDS011;2121;48.062;7.850;2023-03-12T14:58:59;6.53;;;2.17;;
4214;SDS011;2121;48.062;7.850;2023-03-12T15:01:45;2.23;;;2.03;;
4214;SDS011;2121;48.062;7.850;2023-03-12T15:04:13;4.27;;;2.20;;
4214;SDS011;2121;48.062;7.850;2023-03-12T15:06:47;3.33;;;2.57;;
4214;SDS011;2121;48.062;7.850;2023-03-12T15:09:18;2.13;;;1.80;;
4214;SDS011;2121;48.062;7.850;2023-03-12T15:11:50;4.10;;;2.70;;
4214;SDS011;2121;48.062;7.850;2023-03-12T15:14:31;3.60;;;1.83;;
4214;SDS011;2121;48.062;7.850;2023-03-12T15:17:03;8.77;;;2.20;;
4214;SDS011;2121;48.062;7.850;2023-03-12T15:19:31;4.60;;;2.10;;
4214;SDS011;2121;48.062;7.850;2023-03-12T15:22:02;6.90;;;2.33;;
4214;SDS011;2121;48.062;7.850;2023-03-12T15:24:29;10.40;;;2.40;;
4214;SDS011;2121;48.062;7.850;2023-03-12T15:27:30;5.67;;;2.20;;
4214;SDS011;2121;48.062;7.850;2023-03-12T15:29:58;3.87;;;2.40;;
4214;SDS011;2121;48.062;7.850;2023-03-12T15:32:26;3.33;;;2.17;;
4214;SDS011;2121;48.062;7.850;2023-03-12T15:34:55;5.43;;;2.23;;
4214;SDS011;2121;48.062;7.850;2023-03-12T15:37:22;3.97;;;2.20;;
4214;SDS011;2121;48.062;7.850;2023-03-12T15:39:56;14.33;;;3.20;;
4214;SDS011;2121;48.062;7.850;2023-03-12T15:42:25;6.80;;;2.50;;
4214;SDS011;2121;48.062;7.850;2023-03-12T15:44:57;12.83;;;3.03;;
4214;SDS011;2121;48.062;7.850;2023-03-12T15:47:31;2.40;;;2.20;;
4214;SDS011;2121;48.062;7.850;2023-03-12T15:50:06;7.03;;;2.87;;
4214;SDS011;2121;48.062;7.850;2023-03-12T15:52:56;5.40;;;2.60;;
4214;SDS011;2121;48.062;7.850;2023-03-12T15:58:37;4.80;;;2.17;;
4214;SDS011;2121;48.062;7.850;2023-03-12T16:01:06;4.30;;;2.20;;
4214;SDS011;2121;48.062;7.850;2023-03-12T16:03:32;6.47;;;2.57;;
4214;SDS011;2121;48.062;7.850;2023-03-12T16:05:58;4.10;;;1.97;;
4214;SDS011;2121;48.062;7.850;2023-03-12T16:08:25;3.00;;;1.90;;
4214;SDS011;2121;48.062;7.850;2023-03-12T16:11:02;8.03;;;2.60;;
4214;SDS011;2121;48.062;7.850;2023-03-12T16:13:30;7.10;;;2.23;;
4214;SDS011;2121;48.062;7.850;2023-03-12T16:15:56;8.73;;;2.60;;
4214;SDS011;2121;48.062;7.850;2023-03-12T16:18:22;6.87;;;2.80;;
4214;SDS011;2121;48.062;7.850;2023-03-12T16:20:50;3.80;;;2.30;;
4214;SDS011;2121;48.062;7.850;2023-03-12T16:23:17;5.83;;;2.40;;
4214;SDS011;2121;48.062;7.850;2023-03-12T16:25:43;5.00;;;2.60;;
4214;SDS011;2121;48.062;7.850;2023-03-12T16:28:15;10.60;;;3.10;;
4214;SDS011;2121;48.062;7.850;2023-03-12T16:30:43;6.50;;;2.50;;
4214;SDS011;2121;48.062;7.850;2023-03-12T16:33:13;7.17;;;2.50;;
4214;SDS011;2121;48.062;7.850;2023-03-12T16:35:41;7.63;;;2.73;;
4214;SDS011;2121;48.062;7.850;2023-03-12T16:38:08;4.57;;;2.70;;
4214;SDS011;2121;48.062;7.850;2023-03-12T16:40:34;7.87;;;2.67;;
4214;SDS011;2121;48.062;7.850;2023-03-12T16:43:04;6.03;;;2.67;;
4214;SDS011;2121;48.062;7.850;2023-03-12T16:45:41;13.03;;;2.90;;
4214;SDS011;2121;48.062;7.850;2023-03-12T16:48:12;6.50;;;2.97;;
4214;SDS011;2121;48.062;7.850;2023-03-12T16:50:44;11.00;;;3.00;;
4214;SDS011;2121;48.062;7.850;2023-03-12T16:53:16;3.77;;;2.50;;
4214;SDS011;2121;48.062;7.850;2023-03-12T16:55:47;10.67;;;2.83;;
4214;SDS011;2121;48.062;7.850;2023-03-12T16:58:43;7.37;;;2.80;;
4214;SDS011;2121;48.062;7.850;2023-03-12T17:01:11;10.10;;;2.40;;
4214;SDS011;2121;48.062;7.850;2023-03-12T17:03:39;7.63;;;3.00;;
4214;SDS011;2121;48.062;7.850;2023-03-12T17:06:11;11.90;;;2.73;;
4214;SDS011;2121;48.062;7.850;2023-03-12T17:08:43;6.50;;;2.57;;
4214;SDS011;2121;48.062;7.850;2023-03-12T17:11:14;5.40;;;2.77;;
4214;SDS011;2121;48.062;7.850;2023-03-12T17:13:47;8.90;;;2.93;;
4214;SDS011;2121;48.062;7.850;2023-03-12T17:16:23;5.33;;;2.53;;
4214;SDS011;2121;48.062;7.850;2023-03-12T17:18:49;8.87;;;2.87;;
4214;SDS011;2121;48.062;7.850;2023-03-12T17:21:16;8.17;;;3.03;;
4214;SDS011;2121;48.062;7.850;2023-03-12T17:23:42;8.40;;;3.83;;